Time;durP1;ratioP1;P1;durP2;ratioP2;P2;SDS_P1;SDS_P2;PMS_P1;PMS_P2;Temp;Humidity;BMP_temperature;BMP_pressure;BME280_temperature;BME280_humidity;BME280_pressure;Samples;Min_cycle;Max_cycle;Signal;HPM_P1;HPM_P2
2024/01/02 00:01:54;;;;;;;;;0.50;0.00;;;;;11.53;80.64;99658.00;5013002;28;71671;-81
2024/01/02 00:04:20;;;;;;;;;0.00;0.00;;;;;11.54;80.87;99659.66;5007230;28;47105;-81
2024/01/02 00:06:48;;;;;;;;;0.00;0.00;;;;;11.55;80.98;99661.38;5042684;28;46617;-80
2024/01/02 00:09:15;;;;;;;;;0.25;0.00;;;;;11.55;80.88;99649.13;5042234;28;68781;-80
2024/01/02 00:11:41;;;;;;;;;3.00;0.00;;;;;11.55;81.13;99650.91;5019913;28;46347;-79
2024/01/02 00:14:07;;;;;;;;;0.00;0.00;;;;;11.57;80.94;99649.88;5034779;28;45372;-80
2024/01/02 00:16:33;;;;;;;;;0.00;0.00;;;;;11.59;80.92;99648.03;5030489;28;45291;-80
2024/01/02 00:18:58;;;;;;;;;0.00;0.00;;;;;11.62;81.08;99641.81;5006708;28;68940;-80
2024/01/02 00:21:23;;;;;;;;;0.00;0.00;;;;;11.64;81.08;99632.09;5041505;28;45371;-81
2024/01/02 00:23:52;;;;;;;;;0.00;0.00;;;;;11.63;81.15;99633.00;5012332;28;68591;-80
2024/01/02 00:26:17;;;;;;;;;0.00;0.00;;;;;11.66;81.08;99621.53;5038055;28;45272;-81
2024/01/02 00:28:42;;;;;;;;;0.00;0.00;;;;;11.68;81.08;99632.78;5031823;28;45356;-81
2024/01/02 00:31:08;;;;;;;;;1.00;0.00;;;;;11.69;83.74;99616.16;5015889;28;64905;-80
2024/01/02 00:33:33;;;;;;;;;0.00;0.00;;;;;11.68;81.91;99609.22;5010966;28;45405;-80
2024/01/02 00:35:58;;;;;;;;;0.00;0.00;;;;;11.69;81.74;99590.78;5020980;28;45261;-80
2024/01/02 00:38:27;;;;;;;;;0.00;0.00;;;;;11.69;81.38;99589.94;5008692;28;45704;-80
2024/01/02 00:40:52;;;;;;;;;0.00;0.00;;;;;11.71;81.43;99580.25;5024643;28;45500;-80
2024/01/02 00:43:18;;;;;;;;;0.00;0.00;;;;;11.71;81.55;99562.72;5007656;28;44831;-80
2024/01/02 00:45:44;;;;;;;;;0.25;0.00;;;;;11.73;81.18;99567.91;5038169;28;45504;-80
2024/01/02 00:48:09;;;;;;;;;0.25;0.00;;;;;11.73;81.37;99565.28;5015143;28;45211;-81
2024/01/02 00:50:34;;;;;;;;;0.00;0.00;;;;;11.72;82.17;99560.94;5036307;28;54960;-80
2024/01/02 00:53:03;;;;;;;;;0.00;0.00;;;;;11.74;82.19;99569.59;5037786;28;45530;-81
2024/01/02 00:55:29;;;;;;;;;0.00;0.00;;;;;11.73;81.28;99560.03;5019024;28;45345;-81
2024/01/02 00:57:54;;;;;;;;;0.00;0.00;;;;;11.70;81.84;99540.06;5021483;28;45416;-81
2024/01/02 01:00:19;;;;;;;;;0.00;0.00;;;;;11.77;81.47;99548.47;5031634;28;48932;-82
2024/01/02 01:02:45;;;;;;;;;1.00;0.00;;;;;11.80;81.12;99547.47;5036620;28;45456;-82
2024/01/02 01:05:10;;;;;;;;;0.00;0.00;;;;;11.82;81.16;99540.38;5022739;28;67047;-80
2024/01/02 01:07:35;;;;;;;;;0.00;0.00;;;;;11.85;83.55;99542.84;5013872;28;71461;-81
2024/01/02 01:10:01;;;;;;;;;0.00;0.00;;;;;11.85;81.59;99512.22;5029805;28;46072;-81
2024/01/02 01:12:26;;;;;;;;;0.25;0.00;;;;;11.88;81.34;99521.69;5014079;28;68465;-80
2024/01/02 01:14:51;;;;;;;;;0.00;0.00;;;;;11.91;81.32;99524.19;5028242;28;69058;-80
2024/01/02 01:17:17;;;;;;;;;0.00;0.00;;;;;11.91;81.17;99503.22;5030584;28;54354;-80
2024/01/02 01:19:42;;;;;;;;;0.00;0.00;;;;;11.90;81.20;99506.75;5035725;28;52802;-80
2024/01/02 01:22:07;;;;;;;;;0.00;0.00;;;;;11.90;81.68;99494.53;5028134;28;63859;-80
2024/01/02 01:24:33;;;;;;;;;0.25;0.00;;;;;11.88;82.36;99495.47;5033289;28;68099;-79
2024/01/02 01:26:59;;;;;;;;;0.00;0.00;;;;;11.87;82.25;99485.94;5033560;28;45828;-79
2024/01/02 01:29:24;;;;;;;;;0.00;0.00;;;;;11.86;82.52;99497.34;5016207;28;46515;-79
2024/01/02 01:31:50;;;;;;;;;0.00;0.00;;;;;11.86;82.68;99492.09;5034301;28;45644;-80
2024/01/02 01:34:17;;;;;;;;;0.00;0.00;;;;;11.86;85.42;99490.31;5034245;28;45795;-79
2024/01/02 01:36:42;;;;;;;;;0.00;0.00;;;;;11.81;86.11;99486.25;5032577;28;45521;-80
2024/01/02 01:39:09;;;;;;;;;0.00;0.00;;;;;11.78;87.01;99477.63;5003430;28;45529;-79
2024/01/02 01:41:34;;;;;;;;;0.00;0.00;;;;;11.74;86.98;99491.81;5032548;28;45285;-79
2024/01/02 01:44:00;;;;;;;;;0.00;0.00;;;;;11.73;86.24;99484.88;5029084;28;45538;-79
2024/01/02 01:46:37;;;;;;;;;0.00;0.00;;;;;11.71;84.98;99473.63;5032500;28;69592;-81
2024/01/02 01:49:03;;;;;;;;;3.00;0.00;;;;;11.71;86.70;99478.03;5031394;28;45508;-80
2024/01/02 01:51:29;;;;;;;;;0.00;0.00;;;;;11.71;85.83;99478.88;5019805;28;45274;-79
2024/01/02 01:53:58;;;;;;;;;3.00;0.00;;;;;11.68;84.36;99484.25;5028219;28;45462;-80
2024/01/02 01:56:23;;;;;;;;;1.50;0.00;;;;;11.73;84.09;99478.78;5020906;28;45535;-80
2024/01/02 01:58:49;;;;;;;;;1.00;0.00;;;;;11.73;83.76;99477.00;5029836;28;60710;-80
2024/01/02 02:01:15;;;;;;;;;0.00;0.00;;;;;11.72;86.34;99482.31;5028419;28;45468;-80
2024/01/02 02:03:40;;;;;;;;;0.00;0.00;;;;;11.72;85.61;99482.31;4999960;28;68009;-80
2024/01/02 02:06:06;;;;;;;;;0.00;0.00;;;;;11.70;85.06;99476.31;5025935;28;56164;-79
2024/01/02 02:08:31;;;;;;;;;0.00;0.00;;;;;11.67;84.73;99474.72;5005549;28;47370;-78
2024/01/02 02:10:57;;;;;;;;;0.00;0.00;;;;;11.66;85.50;99486.13;5036505;28;45349;-78
2024/01/02 02:13:22;;;;;;;;;0.00;0.00;;;;;11.64;86.52;99484.50;5037517;28;61147;-78
2024/01/02 02:15:49;;;;;;;;;0.00;0.00;;;;;11.61;87.93;99472.41;5017586;28;45392;-78
2024/01/02 02:18:14;;;;;;;;;0.00;0.00;;;;;11.62;88.32;99470.66;5004670;28;46992;-78
2024/01/02 02:20:39;;;;;;;;;1.00;0.00;;;;;11.62;87.12;99476.72;5010828;28;45305;-78
2024/01/02 02:23:05;;;;;;;;;0.00;0.00;;;;;11.62;86.81;99470.66;5028007;28;45435;-78
2024/01/02 02:25:30;;;;;;;;;0.00;0.00;;;;;11.60;86.84;99470.72;5026949;28;45425;-79
2024/01/02 02:27:55;;;;;;;;;0.00;0.00;;;;;11.59;87.16;99479.50;5035092;28;45348;-80
2024/01/02 02:30:21;;;;;;;;;0.00;0.00;;;;;11.56;95.43;99466.53;5014626;28;66782;-79
2024/01/02 02:32:46;;;;;;;;;0.25;0.00;;;;;11.55;97.44;99470.94;5032537;28;45644;-78
2024/01/02 02:35:11;;;;;;;;;1.00;0.00;;;;;11.58;95.57;99462.94;5029379;28;45553;-79
2024/01/02 02:37:37;;;;;;;;;0.00;0.00;;;;;11.63;87.64;99467.91;5018808;28;60249;-79
2024/01/02 02:40:03;;;;;;;;;1.00;0.00;;;;;11.67;86.65;99473.84;5016225;28;51767;-80
2024/01/02 02:42:28;;;;;;;;;0.00;0.00;;;;;11.69;86.21;99470.25;5015899;28;45644;-79
2024/01/02 02:44:54;;;;;;;;;0.00;0.00;;;;;11.71;88.10;99471.00;5033513;28;45543;-79
2024/01/02 02:47:21;;;;;;;;;0.00;0.00;;;;;11.71;87.99;99467.53;5017844;28;47764;-79
2024/01/02 02:49:47;;;;;;;;;0.00;0.00;;;;;11.74;86.57;99465.59;5027499;28;45318;-79
2024/01/02 02:52:13;;;;;;;;;0.00;0.00;;;;;11.78;85.89;99464.50;5010141;28;46381;-80
2024/01/02 02:54:39;;;;;;;;;1.00;0.00;;;;;11.81;85.39;99460.03;5015152;28;45619;-78
2024/01/02 02:57:04;;;;;;;;;0.00;0.00;;;;;11.85;85.33;99466.81;5018608;28;46052;-79
2024/01/02 02:59:29;;;;;;;;;0.00;0.00;;;;;11.86;85.16;99464.09;5000646;28;45383;-79
2024/01/02 03:01:55;;;;;;;;;0.50;0.00;;;;;11.88;84.99;99458.78;5015231;28;54395;-79
2024/01/02 03:04:20;;;;;;;;;2.25;0.00;;;;;11.91;84.87;99450.78;5010799;28;45433;-80
2024/01/02 03:06:45;;;;;;;;;1.00;0.00;;;;;11.93;84.44;99459.41;5035578;28;75603;-79
2024/01/02 03:09:11;;;;;;;;;0.00;0.00;;;;;11.94;83.83;99453.25;5036332;28;61498;-79
2024/01/02 03:11:36;;;;;;;;;0.00;0.00;;;;;11.98;83.81;99460.03;5030637;28;62438;-79
2024/01/02 03:14:02;;;;;;;;;0.00;0.00;;;;;12.01;83.32;99457.25;5025805;28;59162;-78
2024/01/02 03:16:28;;;;;;;;;0.00;0.00;;;;;12.01;83.68;99465.09;5034270;28;45356;-79
2024/01/02 03:18:53;;;;;;;;;0.00;0.00;;;;;12.05;83.15;99457.94;5017767;28;67428;-78
2024/01/02 03:21:20;;;;;;;;;1.00;0.00;;;;;12.05;83.47;99437.78;5030376;28;64208;-79
2024/01/02 03:23:45;;;;;;;;;0.00;0.00;;;;;12.06;83.05;99447.34;5028146;28;45577;-79
2024/01/02 03:26:11;;;;;;;;;0.00;0.00;;;;;12.03;83.30;99439.66;5024133;28;74955;-79
2024/01/02 03:28:37;;;;;;;;;0.00;0.00;;;;;12.05;82.95;99431.69;5027260;28;45425;-78
2024/01/02 03:31:04;;;;;;;;;0.00;0.00;;;;;12.06;82.66;99444.75;4994133;28;45508;-78
2024/01/02 03:33:31;;;;;;;;;0.00;0.00;;;;;12.06;83.08;99441.28;5009833;28;45408;-78
2024/01/02 03:35:56;;;;;;;;;0.00;0.00;;;;;12.08;83.04;99439.41;5027900;28;45492;-78
2024/01/02 03:38:21;;;;;;;;;0.00;0.00;;;;;12.07;83.18;99448.19;5015286;28;73021;-78
2024/01/02 03:40:47;;;;;;;;;0.00;0.00;;;;;12.08;82.83;99450.75;5021672;28;61959;-78
2024/01/02 03:43:12;;;;;;;;;0.00;0.00;;;;;12.07;82.65;99438.53;5041421;28;72241;-78
2024/01/02 03:45:37;;;;;;;;;0.00;0.00;;;;;12.06;82.70;99444.75;5027479;28;69173;-78
2024/01/02 03:48:03;;;;;;;;;0.00;0.00;;;;;12.05;82.58;99442.19;5036808;28;45351;-78
2024/01/02 03:50:28;;;;;;;;;0.00;0.00;;;;;12.04;82.59;99443.09;5035106;28;45439;-79
2024/01/02 03:52:54;;;;;;;;;0.00;0.00;;;;;12.08;82.43;99440.25;5036840;28;69561;-78
2024/01/02 03:55:19;;;;;;;;;0.00;0.00;;;;;12.10;82.46;99441.00;5026120;28;58785;-77
2024/01/02 03:57:44;;;;;;;;;0.00;0.00;;;;;12.10;82.02;99435.75;5032173;28;64489;-77
2024/01/02 04:00:10;;;;;;;;;0.00;0.00;;;;;12.09;82.17;99428.84;5038306;28;45535;-79
2024/01/02 04:02:35;;;;;;;;;0.00;0.00;;;;;12.10;82.72;99421.81;5034095;28;45189;-78
2024/01/02 04:05:03;;;;;;;;;1.50;0.00;;;;;12.11;82.72;99428.72;5036984;28;71544;-76
2024/01/02 04:07:28;;;;;;;;;1.00;0.00;;;;;12.08;82.02;99426.31;5044334;28;45248;-78
2024/01/02 04:09:53;;;;;;;;;0.00;0.00;;;;;12.09;82.27;99417.50;5048350;28;68259;-77
2024/01/02 04:12:19;;;;;;;;;0.00;0.00;;;;;12.08;82.42;99428.94;5057219;28;45349;-78
2024/01/02 04:14:44;;;;;;;;;0.50;0.00;;;;;12.08;82.54;99418.44;5045125;28;57252;-78
2024/01/02 04:17:09;;;;;;;;;0.00;0.00;;;;;12.07;82.17;99407.06;5031385;28;69545;-78
2024/01/02 04:19:35;;;;;;;;;0.00;0.00;;;;;12.09;82.42;99425.34;5051709;28;57032;-78
2024/01/02 04:22:00;;;;;;;;;0.00;0.00;;;;;12.08;82.27;99428.94;5047840;28;72018;-78
2024/01/02 04:24:25;;;;;;;;;0.00;0.00;;;;;12.06;82.13;99423.75;5028513;28;75066;-77
2024/01/02 04:26:51;;;;;;;;;0.00;0.00;;;;;12.03;82.22;99418.66;5043668;28;45459;-78
2024/01/02 04:29:17;;;;;;;;;0.00;0.00;;;;;12.04;82.11;99425.63;5037822;28;45481;-80
2024/01/02 04:31:42;;;;;;;;;0.00;0.00;;;;;12.04;82.52;99430.88;5035103;28;45502;-79
2024/01/02 04:34:09;;;;;;;;;1.00;0.00;;;;;12.05;82.46;99416.81;5032657;28;70852;-79
2024/01/02 04:36:35;;;;;;;;;0.00;0.00;;;;;12.02;82.21;99424.00;5037754;28;45468;-79
2024/01/02 04:39:00;;;;;;;;;1.00;0.00;;;;;12.02;82.51;99416.97;5045334;28;45535;-78
2024/01/02 04:41:25;;;;;;;;;0.00;0.00;;;;;12.01;82.55;99424.94;5040569;28;62766;-79
2024/01/02 04:43:51;;;;;;;;;0.00;0.00;;;;;12.01;82.15;99412.66;5025999;28;67794;-79
2024/01/02 04:46:16;;;;;;;;;0.00;0.00;;;;;12.00;82.54;99418.81;5042105;28;71895;-77
2024/01/02 04:48:41;;;;;;;;;0.00;0.00;;;;;11.99;82.07;99411.91;5037243;28;65874;-78
2024/01/02 04:51:06;;;;;;;;;0.00;0.00;;;;;12.01;82.04;99417.06;5045123;28;44822;-79
2024/01/02 04:53:32;;;;;;;;;0.00;0.00;;;;;11.99;81.96;99409.28;5036110;28;67358;-78
2024/01/02 04:55:57;;;;;;;;;0.00;0.00;;;;;11.98;82.10;99427.72;5043894;28;73289;-78
2024/01/02 04:58:23;;;;;;;;;0.25;0.00;;;;;11.95;82.15;99416.47;5030775;28;52169;-79
2024/01/02 05:00:48;;;;;;;;;0.00;0.00;;;;;11.93;82.39;99412.22;5031967;28;45294;-78
2024/01/02 05:03:14;;;;;;;;;0.00;0.00;;;;;11.93;82.45;99417.47;5040397;28;61847;-78
2024/01/02 05:05:39;;;;;;;;;0.00;0.00;;;;;11.89;82.45;99416.75;5048762;28;44762;-78
2024/01/02 05:08:05;;;;;;;;;0.00;0.00;;;;;11.90;82.84;99417.63;5044187;28;47580;-78
2024/01/02 05:10:30;;;;;;;;;0.00;0.00;;;;;11.84;82.72;99415.31;5014505;28;45551;-78
2024/01/02 05:12:56;;;;;;;;;0.00;0.00;;;;;11.80;85.91;99419.03;5023249;28;68423;-78
2024/01/02 05:15:21;;;;;;;;;0.75;0.00;;;;;11.77;83.50;99420.91;5030940;28;53283;-78
2024/01/02 05:17:47;;;;;;;;;0.00;0.00;;;;;11.77;83.54;99422.66;5031328;28;45430;-78
2024/01/02 05:20:12;;;;;;;;;0.00;0.00;;;;;11.74;83.45;99420.22;5020826;28;73155;-78
2024/01/02 05:22:37;;;;;;;;;0.00;0.00;;;;;11.73;83.27;99419.34;5014150;28;45547;-78
2024/01/02 05:25:03;;;;;;;;;0.00;0.00;;;;;11.70;83.18;99406.41;5025253;28;65890;-76
2024/01/02 05:27:28;;;;;;;;;0.00;0.00;;;;;11.70;83.41;99416.03;5023320;28;45247;-78
2024/01/02 05:29:53;;;;;;;;;0.00;0.00;;;;;11.69;83.27;99390.78;5035226;28;66805;-77
2024/01/02 05:32:19;;;;;;;;;0.00;0.00;;;;;11.70;83.08;99395.06;5042962;28;71769;-78
2024/01/02 05:34:44;;;;;;;;;0.75;0.00;;;;;11.71;83.11;99394.16;5037657;28;57769;-78
2024/01/02 05:37:09;;;;;;;;;0.00;0.00;;;;;11.72;82.61;99401.06;5011948;28;62741;-77
2024/01/02 05:39:35;;;;;;;;;0.00;0.00;;;;;11.69;82.94;99407.34;5030238;28;68537;-78
2024/01/02 05:42:00;;;;;;;;;0.00;0.00;;;;;11.67;82.82;99401.34;5025313;28;75464;-79
2024/01/02 05:44:25;;;;;;;;;0.00;0.00;;;;;11.65;83.10;99394.47;5035036;28;45352;-78
2024/01/02 05:46:51;;;;;;;;;1.00;0.00;;;;;11.62;83.03;99400.72;5022427;28;57749;-79
2024/01/02 05:49:16;;;;;;;;;0.00;0.00;;;;;11.62;82.97;99403.34;5035030;28;63122;-78
2024/01/02 05:51:41;;;;;;;;;0.00;0.00;;;;;11.63;82.48;99391.94;5032789;28;75559;-77
2024/01/02 05:54:07;;;;;;;;;0.00;0.00;;;;;11.62;82.82;99398.13;5018174;28;45390;-77
2024/01/02 05:56:32;;;;;;;;;0.00;0.00;;;;;11.62;82.73;99392.88;5018512;28;66017;-79
2024/01/02 05:58:57;;;;;;;;;0.75;0.00;;;;;11.61;82.70;99406.88;5014906;28;45405;-78
2024/01/02 06:01:23;;;;;;;;;0.25;0.00;;;;;11.61;82.35;99392.94;5034014;28;45501;-77
2024/01/02 06:03:48;;;;;;;;;0.00;0.00;;;;;11.59;82.59;99379.94;5034548;28;73364;-78
2024/01/02 06:06:13;;;;;;;;;0.75;0.00;;;;;11.59;82.76;99383.38;5034019;28;45459;-76
2024/01/02 06:08:39;;;;;;;;;0.00;0.00;;;;;11.58;82.74;99391.34;5034583;28;45433;-77
2024/01/02 06:11:05;;;;;;;;;2.50;0.00;;;;;11.59;82.56;99385.16;5014894;28;47071;-77
2024/01/02 06:13:30;;;;;;;;;0.75;0.00;;;;;11.58;82.65;99370.41;5013385;28;45509;-78
2024/01/02 06:15:56;;;;;;;;;1.00;0.00;;;;;11.57;82.78;99384.41;5032511;28;45509;-76
2024/01/02 06:18:21;;;;;;;;;0.00;0.00;;;;;11.55;82.48;99368.75;5036238;28;46039;-78
2024/01/02 06:20:46;;;;;;;;;0.00;0.00;;;;;11.55;82.54;99367.94;5017393;28;47460;-77
2024/01/02 06:23:12;;;;;;;;;0.00;0.00;;;;;11.55;83.24;99386.28;5026209;28;45551;-76
2024/01/02 06:25:38;;;;;;;;;0.75;0.00;;;;;11.52;83.16;99382.03;5035385;28;45495;-76
2024/01/02 06:28:03;;;;;;;;;0.75;0.00;;;;;11.52;82.40;99386.41;5001078;28;51507;-78
2024/01/02 06:30:28;;;;;;;;;0.00;0.00;;;;;11.55;82.37;99381.03;5020490;28;45492;-77
2024/01/02 06:32:54;;;;;;;;;0.00;0.00;;;;;11.54;83.88;99385.44;5027118;28;69582;-77
2024/01/02 06:35:19;;;;;;;;;1.50;0.00;;;;;11.51;82.67;99371.63;5034358;28;45596;-78
2024/01/02 06:37:45;;;;;;;;;0.00;0.00;;;;;11.52;82.91;99368.09;5031861;28;63229;-78
2024/01/02 06:40:10;;;;;;;;;0.00;0.00;;;;;11.51;82.73;99366.38;5008691;28;73392;-78
2024/01/02 06:42:35;;;;;;;;;0.00;0.00;;;;;11.52;82.41;99362.84;5021727;28;45344;-78
2024/01/02 06:45:01;;;;;;;;;0.00;0.00;;;;;11.54;82.79;99361.84;5013078;28;45409;-79
2024/01/02 06:47:27;;;;;;;;;1.00;0.00;;;;;11.53;82.57;99346.22;5027829;28;67676;-70
2024/01/02 06:49:52;;;;;;;;;1.00;0.00;;;;;11.53;82.48;99351.44;5016892;28;47176;-75
2024/01/02 06:52:17;;;;;;;;;0.00;0.00;;;;;11.52;82.41;99357.59;5034495;28;45430;-73
2024/01/02 06:54:43;;;;;;;;;0.00;0.00;;;;;11.50;82.60;99338.50;5022327;28;45401;-72
2024/01/02 06:57:08;;;;;;;;;0.00;0.00;;;;;11.51;82.67;99348.03;5022833;28;45511;-79
2024/01/02 06:59:34;;;;;;;;;1.00;0.00;;;;;11.51;82.31;99350.66;5006084;28;45399;-77
2024/01/02 07:01:59;;;;;;;;;0.00;0.00;;;;;11.49;82.75;99348.16;5032353;28;73210;-71
2024/01/02 07:04:24;;;;;;;;;0.00;0.00;;;;;11.50;82.69;99348.97;5029495;28;50375;-85
2024/01/02 07:06:50;;;;;;;;;0.00;0.00;;;;;11.46;82.79;99335.19;5002794;28;45608;-78
2024/01/02 07:09:15;;;;;;;;;2.25;0.00;;;;;11.49;82.91;99342.91;5015837;28;46121;-83
2024/01/02 07:11:41;;;;;;;;;1.00;0.00;;;;;11.49;82.67;99339.41;5024272;28;50172;-84
2024/01/02 07:14:06;;;;;;;;;0.00;0.00;;;;;11.49;82.61;99328.94;5030486;28;45401;-77
2024/01/02 07:16:32;;;;;;;;;0.00;0.00;;;;;11.51;81.97;99330.56;5044491;28;45399;-78
2024/01/02 07:18:57;;;;;;;;;0.00;0.00;;;;;11.52;82.63;99334.03;5029589;28;45630;-77
2024/01/02 07:21:23;;;;;;;;;0.00;0.00;;;;;11.51;82.58;99332.31;5016597;28;45490;-79
2024/01/02 07:23:48;;;;;;;;;2.00;0.00;;;;;11.52;82.46;99320.94;5028488;28;69215;-77
2024/01/02 07:26:14;;;;;;;;;0.50;0.00;;;;;11.53;82.27;99322.63;5026604;28;45348;-74
2024/01/02 07:28:39;;;;;;;;;0.00;0.00;;;;;11.55;82.20;99326.00;5028576;28;45451;-75
2024/01/02 07:31:04;;;;;;;;;2.00;0.00;;;;;11.55;82.46;99315.53;5031093;28;46203;-71
2024/01/02 07:33:29;;;;;;;;;0.00;0.00;;;;;11.55;82.37;99328.63;5036125;28;68403;-72
2024/01/02 07:35:55;;;;;;;;;0.00;0.00;;;;;11.55;82.17;99326.00;5010373;28;68975;-73
2024/01/02 07:38:22;;;;;;;;;0.00;0.00;;;;;11.51;82.39;99325.31;5031395;28;45415;-73
2024/01/02 07:40:48;;;;;;;;;0.25;0.00;;;;;11.53;82.17;99320.00;5030815;28;45507;-70
2024/01/02 07:43:14;;;;;;;;;0.00;0.00;;;;;11.53;82.14;99304.28;5016550;28;66971;-73
2024/01/02 07:45:39;;;;;;;;;0.00;0.00;;;;;11.55;82.05;99320.78;5025687;28;45292;-74
2024/01/02 07:48:05;;;;;;;;;0.00;0.00;;;;;11.55;82.12;99315.53;5015044;28;57797;-71
2024/01/02 07:50:30;;;;;;;;;0.00;0.00;;;;;11.55;82.29;99320.78;5030973;28;45429;-72
2024/01/02 07:52:56;;;;;;;;;0.00;0.00;;;;;11.56;82.25;99327.69;5010769;28;55818;-74
2024/01/02 07:55:21;;;;;;;;;0.25;0.00;;;;;11.54;82.02;99308.59;5029027;28;63601;-71
2024/01/02 07:57:47;;;;;;;;;0.00;0.00;;;;;11.57;82.33;99321.53;5029513;28;45436;-78
2024/01/02 08:00:13;;;;;;;;;1.00;0.00;;;;;11.56;82.06;99331.16;5023969;28;63543;-77
2024/01/02 08:02:38;;;;;;;;;0.00;0.00;;;;;11.57;82.22;99318.91;5014451;28;45353;-77
2024/01/02 08:05:04;;;;;;;;;1.00;0.00;;;;;11.58;82.25;99321.44;5019805;28;62710;-75
2024/01/02 08:07:29;;;;;;;;;0.00;0.00;;;;;11.59;82.06;99309.19;5034757;28;46584;-79
2024/01/02 08:09:54;;;;;;;;;0.75;0.00;;;;;11.61;82.58;99311.72;5021412;28;70182;-80
2024/01/02 08:12:20;;;;;;;;;0.00;0.00;;;;;11.60;82.40;99313.50;5016945;28;51889;-80
2024/01/02 08:14:45;;;;;;;;;0.00;0.00;;;;;11.59;82.55;99307.41;5016862;28;45512;-74
2024/01/02 08:17:10;;;;;;;;;0.00;0.00;;;;;11.61;82.17;99296.00;5025930;28;45449;-81
2024/01/02 08:19:36;;;;;;;;;0.00;0.00;;;;;11.61;82.54;99296.84;5024304;28;45433;-69
2024/01/02 08:22:02;;;;;;;;;0.00;0.00;;;;;11.61;82.23;99291.59;5029017;28;45334;-73
2024/01/02 08:24:28;;;;;;;;;0.00;0.00;;;;;11.62;82.40;99300.31;5007136;28;45351;-80
2024/01/02 08:26:53;;;;;;;;;0.00;0.00;;;;;11.64;82.79;99301.91;5032942;28;46160;-74
2024/01/02 08:29:22;;;;;;;;;0.75;0.00;;;;;11.66;82.37;99301.84;5015354;28;70627;-75
2024/01/02 08:31:47;;;;;;;;;0.00;0.00;;;;;11.66;83.05;99283.50;5011504;28;45361;-75
2024/01/02 08:34:13;;;;;;;;;0.50;0.50;;;;;11.64;82.76;99295.84;5027114;28;64070;-73
2024/01/02 08:36:38;;;;;;;;;1.00;0.00;;;;;11.66;82.24;99291.38;5016273;28;48249;-78
2024/01/02 08:39:05;;;;;;;;;0.00;0.00;;;;;11.65;82.71;99280.03;5016133;28;47169;-72
2024/01/02 08:41:31;;;;;;;;;0.75;0.00;;;;;11.67;82.72;99286.03;5016731;28;45366;-72
2024/01/02 08:43:57;;;;;;;;;0.00;0.00;;;;;11.69;83.02;99285.97;5028592;28;45430;-77
2024/01/02 08:46:22;;;;;;;;;0.00;0.00;;;;;11.69;82.97;99286.81;5015911;28;47295;-80
2024/01/02 08:48:47;;;;;;;;;0.00;0.00;;;;;11.71;82.88;99273.63;5019986;28;70553;-75
2024/01/02 08:51:13;;;;;;;;;0.00;0.00;;;;;11.70;82.70;99264.88;5023890;28;54337;-74
2024/01/02 08:53:38;;;;;;;;;0.00;0.00;;;;;11.73;82.83;99262.09;5022401;28;74606;-78
2024/01/02 08:56:04;;;;;;;;;1.25;0.00;;;;;11.75;82.83;99264.63;5047398;28;45163;-77
2024/01/02 08:58:29;;;;;;;;;1.00;0.00;;;;;11.74;82.64;99248.09;5030796;28;45356;-77
2024/01/02 09:00:54;;;;;;;;;0.00;0.00;;;;;11.74;82.71;99263.81;5018485;28;71154;-78
2024/01/02 09:03:21;;;;;;;;;0.00;0.00;;;;;11.73;82.97;99250.78;5008225;28;73026;-73
2024/01/02 09:05:46;;;;;;;;;0.25;0.25;;;;;11.72;83.13;99246.47;5012308;28;45763;-80
2024/01/02 09:08:11;;;;;;;;;0.00;0.00;;;;;11.72;83.43;99238.59;5019814;28;45569;-72
2024/01/02 09:10:37;;;;;;;;;2.00;0.00;;;;;11.71;82.94;99255.28;5019276;28;46907;-78
2024/01/02 09:13:03;;;;;;;;;0.00;0.00;;;;;11.71;82.93;99243.00;5030905;28;45455;-70
2024/01/02 09:15:29;;;;;;;;;0.50;0.00;;;;;11.72;83.15;99252.56;5027516;28;45322;-73
2024/01/02 09:17:55;;;;;;;;;0.25;0.00;;;;;11.74;82.94;99232.34;5041647;28;45479;-77
2024/01/02 09:20:20;;;;;;;;;0.00;0.00;;;;;11.77;82.99;99247.06;5021929;28;45415;-74
2024/01/02 09:22:46;;;;;;;;;0.00;0.00;;;;;11.80;82.98;99244.25;5040768;28;45420;-79
2024/01/02 09:25:14;;;;;;;;;0.00;0.00;;;;;11.81;82.76;99232.88;5025342;28;47851;-74
2024/01/02 09:27:42;;;;;;;;;0.00;0.00;;;;;11.82;82.86;99237.16;5026668;28;44987;-74
2024/01/02 09:30:10;;;;;;;;;0.00;0.00;;;;;11.83;83.08;99217.88;5020050;28;45353;-76
2024/01/02 09:32:35;;;;;;;;;2.00;0.00;;;;;11.87;83.47;99234.28;5041888;28;45268;-77
2024/01/02 09:35:00;;;;;;;;;3.00;0.00;;;;;11.85;82.79;99242.25;5008436;28;53273;-77
2024/01/02 09:37:26;;;;;;;;;2.00;0.50;;;;;11.86;83.11;99246.53;5031585;28;69864;-76
2024/01/02 09:39:53;;;;;;;;;1.00;0.00;;;;;11.88;82.85;99239.44;4997887;28;45897;-77
2024/01/02 09:43:04;;;;;;;;;0.00;0.00;;;;;11.89;82.98;99225.41;5028949;28;45559;-76
2024/01/02 09:45:38;;;;;;;;;0.00;0.00;;;;;11.93;83.26;99231.34;5031517;28;46287;-74
2024/01/02 09:48:10;;;;;;;;;1.00;0.00;;;;;11.93;83.31;99234.81;5028542;28;45848;-71
2024/01/02 09:51:08;;;;;;;;;1.00;0.00;;;;;11.94;83.37;99230.41;5023070;28;45475;-72
2024/01/02 09:53:53;;;;;;;;;0.50;0.00;;;;;11.98;82.98;99221.44;5030036;28;45475;-72
2024/01/02 09:56:23;;;;;;;;;0.00;0.00;;;;;11.98;82.99;99215.34;5028123;28;45424;-71
2024/01/02 09:59:21;;;;;;;;;0.25;0.00;;;;;12.02;82.75;99211.63;5024564;28;46002;-70
2024/01/02 10:02:12;;;;;;;;;1.00;0.00;;;;;12.04;82.76;99210.63;5033814;28;45445;-75
2024/01/02 10:05:16;;;;;;;;;0.00;0.00;;;;;12.06;83.04;99218.41;5040145;28;45422;-74
2024/01/02 10:07:53;;;;;;;;;0.25;0.00;;;;;12.05;82.79;99225.41;5031321;28;45344;-73
2024/01/02 10:10:33;;;;;;;;;0.00;0.00;;;;;12.07;83.18;99212.19;5030691;28;45339;-76
2024/01/02 10:13:11;;;;;;;;;0.00;0.00;;;;;12.08;83.19;99221.78;5022316;28;45483;-75
2024/01/02 10:15:52;;;;;;;;;0.00;0.00;;;;;12.08;83.14;99221.78;5042198;28;45217;-74
2024/01/02 10:18:17;;;;;;;;;0.00;0.00;;;;;12.09;84.33;99224.31;5031126;28;45487;-74
2024/01/02 10:20:53;;;;;;;;;0.00;0.00;;;;;12.10;83.04;99223.34;5034847;28;45645;-75
2024/01/02 10:23:44;;;;;;;;;0.25;0.00;;;;;12.13;82.61;99227.59;5032685;28;45352;-72
2024/01/02 10:26:11;;;;;;;;;1.00;0.00;;;;;12.14;82.66;99198.63;5007215;28;45310;-74
2024/01/02 10:28:37;;;;;;;;;1.25;0.00;;;;;12.13;82.54;99210.06;5038874;28;46075;-73
2024/01/02 10:31:24;;;;;;;;;0.00;0.00;;;;;12.14;82.84;99200.41;5020017;28;45563;-73
2024/01/02 10:34:22;;;;;;;;;0.00;0.00;;;;;12.15;82.67;99210.00;5028838;28;45647;-74
2024/01/02 10:36:56;;;;;;;;;0.00;0.00;;;;;12.16;82.97;99201.16;5031551;28;45365;-72
2024/01/02 10:39:45;;;;;;;;;0.00;0.00;;;;;12.17;83.00;99202.88;5013757;28;45451;-70
2024/01/02 10:42:33;;;;;;;;;0.00;0.00;;;;;12.21;82.75;99209.63;5017461;28;45771;-68
2024/01/02 10:45:22;;;;;;;;;0.00;0.00;;;;;12.22;82.67;99208.69;5041584;28;45390;-77
2024/01/02 10:48:13;;;;;;;;;0.00;0.00;;;;;12.22;82.70;99192.13;5019051;28;45509;-77
2024/01/02 10:50:58;;;;;;;;;0.00;0.00;;;;;12.22;82.69;99198.22;5028064;28;47017;-74
2024/01/02 10:53:34;;;;;;;;;1.75;0.25;;;;;12.22;83.03;99189.50;5018747;28;45442;-72
2024/01/02 10:56:34;;;;;;;;;0.50;0.50;;;;;12.22;82.59;99165.91;5011258;28;45373;-82
2024/01/02 10:59:25;;;;;;;;;0.50;0.50;;;;;12.22;82.78;99176.41;5004174;28;45531;-72
2024/01/02 11:01:52;;;;;;;;;0.00;0.00;;;;;12.23;82.64;99167.56;5035074;28;46958;-74
2024/01/02 11:04:38;;;;;;;;;0.00;0.00;;;;;12.25;83.01;99152.59;5018012;28;44966;-71
2024/01/02 11:07:06;;;;;;;;;0.00;0.00;;;;;12.25;82.92;99173.56;5040881;28;45138;-78
2024/01/02 11:09:36;;;;;;;;;2.00;0.00;;;;;12.24;83.38;99170.09;5040307;28;45309;-74
2024/01/02 11:12:05;;;;;;;;;1.25;1.25;;;;;12.22;83.11;99176.41;5029611;28;45467;-76
2024/01/02 11:14:31;;;;;;;;;1.00;1.00;;;;;12.22;82.98;99163.28;5025650;28;45268;-84
2024/01/02 11:16:57;;;;;;;;;0.25;0.25;;;;;12.23;82.55;99150.03;5018657;28;58598;-73
2024/01/02 11:19:31;;;;;;;;;0.00;0.00;;;;;12.23;82.94;99163.16;5024989;28;72467;-72
2024/01/02 11:22:24;;;;;;;;;1.25;1.00;;;;;12.24;82.86;99162.25;5005937;28;47016;-71
2024/01/02 11:24:54;;;;;;;;;1.00;1.00;;;;;12.26;83.06;99167.41;5039406;28;45499;-78
2024/01/02 11:27:21;;;;;;;;;2.00;1.00;;;;;12.25;83.00;99145.59;5028888;28;45601;-70
2024/01/02 11:29:48;;;;;;;;;1.00;1.00;;;;;12.25;82.80;99153.44;5039139;28;45287;-75
2024/01/02 11:32:16;;;;;;;;;2.50;1.25;;;;;12.23;82.75;99128.22;5026442;28;46473;-73
2024/01/02 11:34:48;;;;;;;;;4.50;3.25;;;;;12.25;82.65;99134.22;5012086;28;45640;-75
2024/01/02 11:37:23;;;;;;;;;2.00;2.00;;;;;12.25;82.27;99121.97;5033007;28;45464;-77